Time;durP1;ratioP1;P1;durP2;ratioP2;P2;SDS_P1;SDS_P2;PMS_P1;PMS_P2;Temp;Humidity;BMP_temperature;BMP_pressure;BME280_temperature;BME280_humidity;BME280_pressure;Samples;Min_cycle;Max_cycle;Signal;HPM_P1;HPM_P2
2022/12/12 00:06:43;;;;;;;5.25;3.15;;;;;;;3.14;59.35;99365.34;18494889;32;20149;-60
2022/12/12 00:16:46;;;;;;;0.70;0.70;;;;;;;3.46;58.18;99360.53;18494874;32;20445;-59
2022/12/12 00:26:50;;;;;;;0.50;0.50;;;;;;;3.30;57.93;99367.25;18494538;32;20115;-60
2022/12/12 00:36:54;;;;;;;0.55;0.55;;;;;;;3.52;57.14;99387.25;18494269;32;20096;-60
2022/12/12 00:46:58;;;;;;;0.73;0.73;;;;;;;3.25;58.02;99406.75;18494968;32;20116;-60
2022/12/12 00:57:01;;;;;;;0.80;0.80;;;;;;;3.41;57.41;99405.19;18493395;32;20652;-60
2022/12/12 01:07:06;;;;;;;0.88;0.75;;;;;;;3.43;56.88;99409.53;18493254;32;20101;-60
2022/12/12 01:17:09;;;;;;;0.60;0.60;;;;;;;3.30;56.43;99407.63;18493320;32;20096;-60
2022/12/12 01:27:14;;;;;;;0.62;0.62;;;;;;;2.89;56.92;99393.41;18492566;32;20320;-60
2022/12/12 01:37:17;;;;;;;0.70;0.70;;;;;;;3.14;56.38;99391.13;18492268;32;20081;-60
2022/12/12 01:47:23;;;;;;;0.85;0.85;;;;;;;3.07;56.23;99390.19;18491402;32;20131;-59
2022/12/12 01:57:30;;;;;;;0.70;0.70;;;;;;;2.87;56.43;99387.34;18491462;32;20164;-59
2022/12/12 02:07:35;;;;;;;0.60;0.60;;;;;;;2.47;56.79;99382.56;18497778;32;20088;-60
2022/12/12 02:17:46;;;;;;;0.50;0.50;;;;;;;2.63;56.53;99371.59;18499558;32;20138;-59
2022/12/12 02:28:18;;;;;;;0.70;0.70;;;;;;;2.61;56.03;99399.06;18497838;32;20087;-60
2022/12/12 02:38:28;;;;;;;0.60;0.60;;;;;;;2.80;55.38;99399.31;18495705;32;20470;-59
2022/12/12 02:48:35;;;;;;;0.50;0.50;;;;;;;2.79;54.39;99392.44;18497583;32;20089;-59
2022/12/12 02:58:39;;;;;;;0.60;0.60;;;;;;;2.68;55.08;99409.47;18498382;32;20501;-59
2022/12/12 03:08:50;;;;;;;0.60;0.60;;;;;;;2.71;54.71;99407.81;18496668;32;20088;-60
2022/12/12 03:18:58;;;;;;;0.77;0.77;;;;;;;2.50;55.26;99418.66;18495644;32;20107;-59
2022/12/12 03:29:06;;;;;;;1.73;1.62;;;;;;;2.91;54.26;99402.03;18495781;32;20149;-59
2022/12/12 03:39:15;;;;;;;0.68;0.68;;;;;;;2.59;54.75;99407.59;18496100;32;20096;-59
2022/12/12 03:49:21;;;;;;;0.73;0.73;;;;;;;2.53;54.47;99410.12;18495812;32;20088;-59
2022/12/12 03:59:30;;;;;;;0.73;0.73;;;;;;;2.72;53.64;99426.69;18495295;32;20568;-59
2022/12/12 04:30:21;;;;;;;0.60;0.60;;;;;;;2.48;53.42;99472.72;18446984;32;20096;-59
2022/12/12 04:40:28;;;;;;;0.93;0.93;;;;;;;2.40;52.15;99483.75;18420629;32;20145;-59
2022/12/12 04:50:32;;;;;;;0.60;0.60;;;;;;;2.05;52.05;99490.91;18366773;32;20085;-59
2022/12/12 05:00:41;;;;;;;0.70;0.70;;;;;;;2.41;52.24;99518.97;18409730;32;20096;-60
2022/12/12 05:10:45;;;;;;;0.82;0.82;;;;;;;2.36;50.25;99527.47;18429707;32;20101;-59
2022/12/12 05:20:50;;;;;;;0.82;0.82;;;;;;;2.02;50.85;99508.88;18468593;32;20124;-59
2022/12/12 05:30:53;;;;;;;0.88;0.88;;;;;;;2.11;51.09;99515.03;18372912;32;20094;-59
2022/12/12 05:40:57;;;;;;;0.85;0.85;;;;;;;1.91;50.52;99512.97;18468554;32;20097;-59
2022/12/12 05:51:01;;;;;;;0.70;0.70;;;;;;;1.92;49.86;99525.84;18493346;32;20804;-59
2022/12/12 06:01:06;;;;;;;0.62;0.62;;;;;;;1.45;51.70;99520.63;18450211;32;20089;-60
2022/12/12 06:11:09;;;;;;;0.70;0.70;;;;;;;1.15;51.61;99521.72;18442565;32;20124;-59
2022/12/12 06:21:13;;;;;;;0.60;0.60;;;;;;;1.09;52.49;99530.16;18480520;32;20512;-59
2022/12/12 06:31:17;;;;;;;0.77;0.77;;;;;;;0.94;52.63;99535.84;18468206;32;20107;-59
2022/12/12 06:41:23;;;;;;;2.50;2.40;;;;;;;0.73;52.24;99541.34;18426077;32;20108;-59
2022/12/12 06:51:28;;;;;;;0.60;0.60;;;;;;;0.75;51.90;99570.50;18481531;32;20105;-59
2022/12/12 07:01:33;;;;;;;0.90;0.90;;;;;;;1.01;51.61;99585.66;18424673;32;20106;-60
2022/12/12 07:11:36;;;;;;;0.62;0.62;;;;;;;1.23;50.51;99590.50;18428205;32;20107;-59
2022/12/12 07:21:41;;;;;;;0.60;0.60;;;;;;;1.62;48.80;99598.19;18426318;32;20104;-59
2022/12/12 07:31:44;;;;;;;0.60;0.60;;;;;;;1.88;48.77;99619.31;18421797;32;20169;-60
2022/12/12 07:41:48;;;;;;;0.70;0.70;;;;;;;2.39;47.51;99632.28;18453569;32;20361;-59
2022/12/12 07:51:51;;;;;;;0.60;0.60;;;;;;;2.36;45.60;99645.97;18490209;32;20115;-59
2022/12/12 08:01:57;;;;;;;0.70;0.70;;;;;;;2.12;46.15;99660.97;18490825;32;20670;-59
2022/12/12 08:12:00;;;;;;;0.80;0.80;;;;;;;2.03;46.25;99667.66;18495502;32;20107;-60
2022/12/12 08:22:04;;;;;;;0.60;0.60;;;;;;;1.82;47.15;99677.50;18488950;32;20456;-60
2022/12/12 08:32:08;;;;;;;0.60;0.60;;;;;;;2.03;47.16;99690.84;18442189;32;20110;-59
2022/12/12 08:42:13;;;;;;;0.75;0.75;;;;;;;1.98;46.70;99684.69;18436238;32;20101;-59
2022/12/12 08:52:16;;;;;;;0.60;0.60;;;;;;;2.41;46.73;99684.69;18495511;32;20096;-59
2022/12/12 09:02:21;;;;;;;0.73;0.73;;;;;;;2.57;46.84;99693.63;18496153;32;20111;-59
2022/12/12 09:12:24;;;;;;;0.70;0.70;;;;;;;2.56;45.23;99689.31;18464864;32;20100;-60
2022/12/12 09:22:29;;;;;;;0.60;0.60;;;;;;;2.62;46.25;99699.72;18429364;32;20109;-59
2022/12/12 09:32:32;;;;;;;0.82;0.82;;;;;;;2.45;46.35;99695.94;18424689;32;20101;-60
2022/12/12 09:42:40;;;;;;;0.70;0.70;;;;;;;2.83;45.12;99703.53;18419948;32;20427;-60
2022/12/12 09:52:43;;;;;;;0.70;0.70;;;;;;;2.82;46.10;99699.22;18428809;32;20123;-60
2022/12/12 10:03:04;;;;;;;0.88;0.88;;;;;;;2.84;45.79;99689.78;18428207;32;20125;-60
2022/12/12 10:13:14;;;;;;;0.70;0.70;;;;;;;2.63;45.06;99695.44;18483135;32;20105;-59
2022/12/12 10:23:24;;;;;;;0.60;0.60;;;;;;;2.65;47.23;99701.50;18488330;32;20158;-60
2022/12/12 10:33:37;;;;;;;0.80;0.80;;;;;;;2.62;46.19;99698.88;18462713;32;20443;-59
2022/12/12 10:43:47;;;;;;;0.70;0.70;;;;;;;2.89;45.12;99707.91;18479125;32;20092;-60
2022/12/12 10:53:50;;;;;;;0.80;0.80;;;;;;;2.93;45.93;99704.56;18472219;32;20112;-60
2022/12/12 11:03:56;;;;;;;0.70;0.70;;;;;;;2.94;45.19;99720.88;18448970;32;20445;-60
2022/12/12 11:14:00;;;;;;;1.85;1.75;;;;;;;3.02;45.20;99716.75;18488174;32;20088;-60
2022/12/12 11:24:08;;;;;;;0.60;0.60;;;;;;;3.08;44.84;99729.75;18430293;32;20097;-60
2022/12/12 11:34:14;;;;;;;0.70;0.70;;;;;;;2.78;46.39;99733.53;18485346;32;20492;-60
2022/12/12 11:44:27;;;;;;;0.70;0.70;;;;;;;2.85;47.00;99725.06;18487588;32;20097;-60
2022/12/12 11:54:32;;;;;;;0.50;0.50;;;;;;;3.01;46.70;99726.19;18494258;32;20085;-58
2022/12/12 12:04:48;;;;;;;1.52;1.23;;;;;;;2.92;46.74;99737.19;18427005;32;20465;-60
2022/12/12 12:15:07;;;;;;;0.70;0.70;;;;;;;2.72;47.35;99731.69;18428393;32;20111;-60
2022/12/12 12:25:23;;;;;;;0.65;0.65;;;;;;;2.38;48.74;99750.78;18428760;32;20358;-59
2022/12/12 12:35:30;;;;;;;0.70;0.70;;;;;;;2.62;48.83;99750.41;18416241;32;20096;-60
2022/12/12 12:45:44;;;;;;;1.12;1.08;;;;;;;2.96;48.51;99751.03;18495264;32;20088;-60
2022/12/12 12:55:49;;;;;;;0.65;0.65;;;;;;;3.16;48.92;99738.50;18496127;32;20080;-60
2022/12/12 13:05:56;;;;;;;0.60;0.60;;;;;;;3.03;50.63;99762.31;18448624;32;20121;-60
2022/12/12 13:16:03;;;;;;;1.05;1.05;;;;;;;3.21;50.81;99766.94;18423791;32;20089;-63
2022/12/12 13:26:13;;;;;;;0.60;0.60;;;;;;;3.41;51.02;99769.84;18441305;32;20486;-60
2022/12/12 13:36:20;;;;;;;1.00;1.00;;;;;;;3.23;52.31;99767.84;18492535;32;20112;-59
2022/12/12 13:46:38;;;;;;;0.60;0.60;;;;;;;3.46;51.55;99768.22;18493845;32;20202;-59
2022/12/12 13:56:42;;;;;;;0.90;0.90;;;;;;;3.22;51.56;99783.28;18486291;32;20117;-60
2022/12/12 14:06:58;;;;;;;0.70;0.70;;;;;;;3.21;52.69;99797.91;18418590;32;20093;-59
2022/12/12 14:17:02;;;;;;;0.70;0.70;;;;;;;2.66;54.20;99819.19;18427793;32;20096;-60
2022/12/12 14:27:09;;;;;;;0.60;0.60;;;;;;;2.81;52.79;99818.63;18424854;32;20140;-59
2022/12/12 14:37:26;;;;;;;0.50;0.50;;;;;;;2.74;53.02;99811.59;18455838;32;20097;-59
2022/12/12 14:47:32;;;;;;;0.68;0.68;;;;;;;2.86;52.10;99805.84;18450922;32;20144;-59
2022/12/12 14:57:36;;;;;;;0.68;0.68;;;;;;;2.48;53.76;99824.84;18434104;32;20097;-60
2022/12/12 15:07:44;;;;;;;0.60;0.60;;;;;;;2.46;54.59;99839.38;18421545;32;20085;-59
2022/12/12 15:17:50;;;;;;;0.50;0.50;;;;;;;2.05;54.31;99846.22;18433653;32;20129;-59
2022/12/12 15:27:57;;;;;;;0.57;0.57;;;;;;;2.56;52.46;99848.19;18431651;32;20113;-59
2022/12/12 15:38:02;;;;;;;0.57;0.57;;;;;;;2.38;53.56;99853.81;18466793;32;20115;-59
2022/12/12 15:48:12;;;;;;;0.70;0.70;;;;;;;2.27;52.89;99859.56;18377031;32;20110;-60
2022/12/12 15:58:20;;;;;;;0.60;0.60;;;;;;;2.45;53.55;99863.41;18271671;32;20126;-59
2022/12/12 16:08:45;;;;;;;0.82;0.82;;;;;;;2.49;52.46;99872.97;18310879;32;20141;-59
2022/12/12 16:18:48;;;;;;;0.68;0.68;;;;;;;1.30;56.80;99866.66;18488888;32;20183;-59
2022/12/12 16:28:52;;;;;;;0.57;0.57;;;;;;;2.59;53.93;99874.91;18444384;32;77987;-59
2022/12/12 16:38:56;;;;;;;0.52;0.52;;;;;;;2.21;54.07;99869.75;18486412;32;20117;-59
2022/12/12 16:49:03;;;;;;;0.73;0.73;;;;;;;1.83;55.13;99877.44;18368409;32;20478;-59
2022/12/12 16:59:06;;;;;;;0.50;0.50;;;;;;;2.53;51.67;99887.63;18362718;32;20142;-61
2022/12/12 17:09:11;;;;;;;0.55;0.55;;;;;;;2.45;50.96;99894.31;18427214;32;20166;-59
2022/12/12 17:19:15;;;;;;;0.60;0.60;;;;;;;2.08;51.36;99892.63;18495184;32;20369;-58
2022/12/12 17:29:19;;;;;;;0.55;0.55;;;;;;;2.58;50.39;99893.78;18494457;32;20096;-59
2022/12/12 17:39:22;;;;;;;0.60;0.60;;;;;;;2.43;51.55;99894.31;18383371;32;20120;-59
2022/12/12 17:49:27;;;;;;;0.57;0.57;;;;;;;2.46;50.49;99901.22;18372021;32;20178;-59
2022/12/12 17:59:30;;;;;;;0.50;0.50;;;;;;;2.39;50.65;99918.25;18428113;32;20101;-58
2022/12/12 18:09:35;;;;;;;0.70;0.70;;;;;;;2.53;50.79;99921.12;18394902;32;20109;-62
2022/12/12 18:19:38;;;;;;;0.60;0.60;;;;;;;2.25;52.40;99929.94;18446987;32;20108;-59
2022/12/12 18:29:43;;;;;;;0.80;0.80;;;;;;;2.29;52.79;99924.91;18481340;32;20097;-58
2022/12/12 18:39:47;;;;;;;0.68;0.68;;;;;;;2.24;52.68;99938.50;18403334;32;20124;-60
2022/12/12 18:49:51;;;;;;;0.50;0.50;;;;;;;2.68;52.17;99943.81;18429414;32;20116;-59
2022/12/12 18:59:55;;;;;;;0.68;0.68;;;;;;;2.71;52.25;99959.38;18431477;32;20892;-59
2022/12/12 19:10:00;;;;;;;2.78;2.67;;;;;;;2.68;52.49;99964.44;18430068;32;20092;-59
2022/12/12 19:20:04;;;;;;;0.70;0.70;;;;;;;2.77;52.38;99959.47;18489308;32;20483;-59
2022/12/12 19:30:11;;;;;;;0.60;0.60;;;;;;;2.87;52.62;99977.72;18492212;32;20111;-59
2022/12/12 19:40:18;;;;;;;0.60;0.60;;;;;;;2.64;53.30;99976.38;18497766;32;20116;-59
2022/12/12 19:50:23;;;;;;;0.95;0.95;;;;;;;2.97;52.61;99990.00;18498306;32;20102;-59
2022/12/12 20:00:27;;;;;;;0.65;0.65;;;;;;;3.12;51.91;100014.38;18410955;32;20131;-59
2022/12/12 20:10:32;;;;;;;0.73;0.73;;;;;;;3.11;52.30;100028.13;18443747;32;20123;-59
2022/12/12 20:20:35;;;;;;;0.70;0.70;;;;;;;2.78;52.92;100024.81;18478868;32;20089;-59
2022/12/12 20:30:40;;;;;;;0.62;0.62;;;;;;;2.89;52.40;100018.19;18421435;32;20119;-59
2022/12/12 20:40:43;;;;;;;0.60;0.60;;;;;;;2.89;52.76;100031.09;18371043;32;20088;-59
2022/12/12 20:50:48;;;;;;;0.70;0.70;;;;;;;2.64;53.51;100043.38;18436972;32;20097;-59
2022/12/12 21:00:52;;;;;;;1.12;1.12;;;;;;;2.35;54.32;100040.94;18450826;32;20391;-59
2022/12/12 21:10:56;;;;;;;0.98;0.98;;;;;;;2.62;53.84;100055.34;18450840;32;20096;-59
2022/12/12 21:20:59;;;;;;;0.60;0.60;;;;;;;2.49;54.25;100054.19;18426153;32;20111;-60
2022/12/12 21:31:07;;;;;;;0.70;0.70;;;;;;;2.61;54.09;100069.09;18460360;32;20364;-59
2022/12/12 21:41:12;;;;;;;0.70;0.70;;;;;;;2.82;53.86;100070.44;18408604;32;20109;-59
2022/12/12 21:51:17;;;;;;;0.70;0.70;;;;;;;2.52;55.01;100079.16;18379507;32;20153;-59
2022/12/12 22:01:20;;;;;;;0.60;0.60;;;;;;;2.53;55.35;100080.91;18399265;32;20088;-59
2022/12/12 22:11:28;;;;;;;0.80;0.80;;;;;;;2.48;55.14;100061.88;18428550;32;20089;-59
2022/12/12 22:21:49;;;;;;;0.60;0.60;;;;;;;2.33;55.76;100065.81;18431429;32;20430;-59
2022/12/12 22:31:54;;;;;;;0.60;0.60;;;;;;;2.16;56.04;100079.94;18396669;32;20123;-59
2022/12/12 22:41:57;;;;;;;0.68;0.68;;;;;;;2.16;55.97;100083.41;18480742;32;20100;-59
2022/12/12 22:52:01;;;;;;;0.70;0.70;;;;;;;2.24;55.84;100078.44;18436244;32;20105;-59
2022/12/12 23:02:04;;;;;;;1.00;1.00;;;;;;;2.10;56.33;100100.41;18434462;32;20152;-59
2022/12/12 23:12:09;;;;;;;0.80;0.80;;;;;;;1.76;57.21;100108.03;18433861;32;20100;-59
2022/12/12 23:22:13;;;;;;;1.60;1.58;;;;;;;1.30;58.18;100104.94;18432955;32;20179;-59
2022/12/12 23:32:17;;;;;;;0.80;0.80;;;;;;;1.50;58.21;100101.28;18447280;32;20107;-59
2022/12/12 23:42:20;;;;;;;0.60;0.60;;;;;;;1.79;57.35;100116.69;18458953;32;20107;-60
2022/12/12 23:52:25;;;;;;;0.67;0.67;;;;;;;1.28;57.86;100117.78;18459632;32;20097;-59
